createdAt,value
2023-03-31T00:04:52.747Z,54.23
2023-03-31T00:10:10.404Z,56.13
2023-03-31T00:15:22.503Z,58.13
2023-03-31T00:20:26.088Z,59.23
2023-03-31T00:25:29.526Z,60.35
2023-03-31T00:30:32.753Z,61.26
2023-03-31T00:35:39.496Z,62.95
2023-03-31T00:40:47.474Z,63.54
2023-03-31T00:45:51.122Z,54.63
2023-03-31T00:50:58.034Z,54.77
2023-03-31T00:56:08.598Z,56.39
2023-03-31T01:01:17.690Z,58.08
2023-03-31T01:06:21.454Z,58.77
2023-03-31T01:11:27.705Z,60.74
2023-03-31T01:16:34.212Z,61.39
2023-03-31T01:22:03.586Z,64.65
2023-03-31T01:27:51.271Z,62.54
2023-03-31T01:33:22.755Z,52.76
2023-03-31T01:39:02.197Z,54.69
2023-03-31T01:44:32.637Z,56.64
2023-03-31T01:50:02.685Z,57.71
2023-03-31T01:55:25.608Z,59.86
2023-03-31T02:00:38.417Z,60.43
2023-03-31T02:05:48.103Z,60.85
2023-03-31T02:10:53.743Z,61.73
2023-03-31T02:16:01.911Z,65.85
2023-03-31T02:21:08.881Z,60.74
2023-03-31T02:26:17.684Z,52.40
2023-03-31T02:31:46.655Z,53.59
2023-03-31T02:36:50.796Z,56.46
2023-03-31T02:41:55.163Z,57.74
2023-03-31T02:46:58.779Z,59.19
2023-03-31T02:52:32.127Z,59.59
2023-03-31T02:57:38.320Z,60.45
2023-03-31T03:02:44.850Z,60.85
2023-03-31T03:08:18.631Z,61.46
2023-03-31T03:13:31.462Z,61.80
2023-03-31T03:18:34.840Z,65.96
2023-03-31T03:23:38.398Z,58.64
2023-03-31T03:28:41.919Z,53.50
2023-03-31T03:33:45.572Z,55.14
2023-03-31T03:38:48.848Z,56.84
2023-03-31T03:43:52.220Z,58.12
2023-03-31T03:48:56.167Z,59.05
2023-03-31T03:53:59.447Z,59.57
2023-03-31T03:59:02.925Z,59.85
2023-03-31T04:04:06.256Z,60.70
2023-03-31T04:09:09.697Z,60.71
2023-03-31T04:14:13.119Z,61.26
2023-03-31T04:19:22.071Z,61.40
2023-03-31T04:24:33.269Z,61.44
2023-03-31T04:29:37.441Z,61.89
2023-03-31T04:34:40.739Z,68.02
2023-03-31T04:39:46.918Z,61.52
2023-03-31T04:44:50.165Z,52.24
2023-03-31T04:49:53.522Z,52.35
2023-03-31T04:54:56.770Z,53.66
2023-03-31T05:00:00.172Z,54.97
2023-03-31T05:05:04.724Z,56.40
2023-03-31T05:10:08.652Z,57.09
2023-03-31T05:15:13.501Z,58.14
2023-03-31T05:20:19.745Z,58.75
2023-03-31T05:25:23.847Z,59.02
2023-03-31T05:30:28.221Z,59.52
2023-03-31T05:35:31.686Z,59.85
2023-03-31T05:40:35.060Z,60.14
2023-03-31T05:45:38.454Z,60.32
2023-03-31T05:50:43.261Z,60.35
2023-03-31T05:55:47.207Z,60.37
2023-03-31T06:00:50.460Z,60.58
2023-03-31T06:05:54.335Z,60.55
2023-03-31T06:10:58.537Z,60.89
2023-03-31T06:16:02.113Z,60.90
2023-03-31T06:21:06.334Z,61.08
2023-03-31T06:26:16.339Z,61.01
2023-03-31T06:31:22.736Z,60.96
2023-03-31T06:36:26.269Z,60.68
2023-03-31T06:41:29.484Z,60.57
2023-03-31T06:46:34.095Z,60.34
2023-03-31T06:51:37.431Z,60.10
2023-03-31T06:56:40.913Z,59.99
2023-03-31T07:01:46.215Z,59.93
2023-03-31T07:06:49.552Z,59.64
2023-03-31T07:11:56.291Z,59.58
2023-03-31T07:17:00.485Z,59.15
2023-03-31T07:22:04.524Z,58.88
2023-03-31T07:27:07.783Z,58.77
2023-03-31T07:32:11.498Z,58.41
2023-03-31T07:37:14.814Z,57.90
2023-03-31T07:42:18.476Z,57.62
2023-03-31T07:47:24.711Z,57.61
2023-03-31T07:52:28.220Z,57.33
2023-03-31T07:57:31.768Z,56.87
2023-03-31T08:02:36.534Z,56.55
2023-03-31T08:07:44.166Z,55.90
2023-03-31T08:12:58.543Z,56.40
2023-03-31T08:18:04.260Z,55.93
2023-03-31T08:23:12.424Z,55.21
2023-03-31T08:28:16.413Z,54.95
2023-03-31T08:33:41.672Z,54.50
2023-03-31T08:38:49.961Z,54.28
2023-03-31T08:44:15.959Z,53.95
2023-03-31T08:49:22.586Z,53.25
2023-03-31T08:54:49.869Z,53.12
2023-03-31T08:59:58.605Z,53.34
2023-03-31T09:05:11.765Z,53.16
2023-03-31T09:10:30.599Z,53.16
2023-03-31T09:15:46.626Z,52.01
2023-03-31T09:20:53.876Z,52.36
2023-03-31T09:25:59.836Z,52.29
2023-03-31T09:31:17.832Z,51.84
2023-03-31T09:36:26.071Z,52.35
2023-03-31T09:43:42.365Z,52.39
2023-03-31T09:48:55.089Z,51.98
2023-03-31T09:54:11.037Z,51.86
2023-03-31T09:59:36.270Z,51.46
2023-03-31T10:04:46.854Z,50.61
2023-03-31T10:09:51.958Z,50.46
2023-03-31T10:20:43.793Z,49.88
2023-03-31T10:29:33.903Z,49.48
2023-03-31T10:34:43.162Z,47.50
2023-03-31T10:39:48.235Z,46.93
2023-03-31T10:45:37.854Z,46.45
2023-03-31T10:50:43.980Z,45.78
2023-03-31T10:55:47.639Z,45.73
2023-03-31T11:01:26.391Z,45.40
2023-03-31T11:06:38.103Z,46.31
2023-03-31T11:11:54.355Z,44.94
2023-03-31T11:17:24.027Z,44.71
2023-03-31T11:22:53.063Z,43.71
2023-03-31T11:28:20.481Z,44.50
2023-03-31T11:33:41.619Z,44.49
2023-03-31T11:38:57.098Z,45.28
2023-03-31T11:44:13.310Z,45.22
2023-03-31T11:49:22.255Z,45.41
2023-03-31T11:54:32.051Z,45.09
2023-03-31T11:59:37.713Z,45.88
2023-03-31T12:04:43.488Z,46.15
2023-03-31T12:10:15.476Z,47.68
2023-03-31T12:15:27.642Z,48.72
2023-03-31T12:20:35.198Z,47.85
2023-03-31T12:25:54.071Z,47.04
2023-03-31T12:30:58.226Z,46.05
2023-03-31T12:36:05.435Z,46.62
2023-03-31T12:41:15.119Z,46.72
2023-03-31T12:46:41.322Z,46.96
2023-03-31T12:52:27.812Z,45.82
2023-03-31T12:57:31.161Z,44.99
2023-03-31T13:02:34.770Z,45.00
2023-03-31T13:07:41.815Z,44.91
2023-03-31T13:13:01.325Z,45.21
2023-03-31T13:18:07.226Z,44.90
2023-03-31T13:23:28.843Z,44.50
2023-03-31T13:28:47.190Z,44.07
2023-03-31T13:34:07.844Z,44.40
2023-03-31T13:40:27.583Z,43.90
2023-03-31T13:45:28.794Z,41.87
2023-03-31T13:50:42.406Z,42.50
2023-03-31T13:55:58.768Z,42.85
2023-03-31T14:01:35.126Z,42.44
2023-03-31T14:06:57.242Z,42.56
2023-03-31T14:12:02.163Z,42.93
2023-03-31T14:17:08.997Z,42.97
2023-03-31T14:22:43.830Z,43.31
2023-03-31T14:28:21.997Z,44.63
2023-03-31T14:33:49.330Z,45.58
2023-03-31T14:38:53.261Z,46.58
2023-03-31T15:45:31.499Z,44.28
2023-03-31T15:50:35.036Z,44.14
2023-03-31T16:00:52.715Z,44.39
2023-03-31T16:06:06.930Z,44.42
2023-03-31T16:11:36.090Z,44.67
2023-03-31T16:16:46.713Z,45.00
2023-03-31T16:21:55.223Z,45.30
2023-03-31T16:27:03.140Z,45.42
2023-03-31T16:32:21.012Z,45.56
2023-03-31T16:37:25.102Z,45.69
2023-03-31T16:42:29.003Z,45.75
2023-03-31T16:47:35.672Z,45.92
2023-03-31T16:52:41.961Z,46.17
2023-03-31T16:57:45.993Z,46.28
2023-03-31T17:02:49.891Z,46.21
2023-03-31T17:07:53.713Z,46.28
2023-03-31T17:12:58.011Z,46.32
2023-03-31T17:18:02.893Z,46.51
2023-03-31T17:23:08.037Z,46.80
2023-03-31T17:28:14.389Z,46.90
2023-03-31T17:33:18.266Z,47.05
2023-03-31T17:38:22.934Z,47.33
2023-03-31T17:43:27.718Z,47.71
2023-03-31T17:48:32.189Z,47.86
2023-03-31T17:53:40.118Z,48.01
2023-03-31T17:58:44.320Z,48.32
2023-03-31T18:03:48.039Z,48.41
2023-03-31T18:08:53.427Z,48.78
2023-03-31T18:13:57.044Z,48.67
2023-03-31T18:19:00.872Z,49.24
2023-03-31T18:24:04.463Z,49.27
2023-03-31T18:29:08.391Z,49.54
2023-03-31T18:34:16.558Z,49.53
2023-03-31T18:42:50.158Z,49.80
2023-03-31T18:47:53.582Z,49.72
2023-03-31T18:52:56.765Z,49.74
2023-03-31T18:58:00.116Z,49.85
2023-03-31T19:03:04.045Z,49.97
2023-03-31T19:08:07.557Z,50.04
2023-03-31T19:13:16.299Z,50.29
2023-03-31T19:18:19.792Z,50.56
2023-03-31T19:23:23.181Z,50.72
2023-03-31T19:28:27.864Z,50.86
2023-03-31T19:33:34.726Z,51.12
2023-03-31T19:38:38.140Z,51.26
2023-03-31T19:43:41.912Z,51.05
2023-03-31T19:48:45.648Z,51.04
2023-03-31T19:53:49.148Z,51.29
2023-03-31T19:58:52.809Z,51.47
2023-03-31T20:03:57.156Z,51.47
2023-03-31T20:09:03.796Z,51.73
2023-03-31T20:14:07.771Z,51.99
2023-03-31T20:19:13.227Z,52.22
2023-03-31T20:24:18.515Z,52.54
2023-03-31T20:29:22.582Z,52.83
2023-03-31T20:34:27.747Z,53.10
2023-03-31T20:39:31.555Z,53.54
2023-03-31T20:44:34.947Z,53.29
2023-03-31T20:49:40.352Z,53.18
2023-03-31T20:54:44.876Z,53.76
2023-03-31T20:59:48.666Z,54.27
2023-03-31T21:05:01.369Z,55.08
2023-03-31T21:10:05.805Z,55.88
2023-03-31T21:15:10.362Z,55.72
2023-03-31T21:20:13.850Z,55.61
2023-03-31T21:25:17.495Z,55.56
2023-03-31T21:30:44.862Z,55.52
2023-03-31T21:35:46.060Z,55.55
2023-03-31T21:40:52.372Z,56.04
2023-03-31T21:45:58.529Z,56.45
2023-03-31T21:51:03.273Z,56.48
2023-03-31T21:56:06.722Z,56.64
2023-03-31T22:01:13.654Z,56.22
2023-03-31T22:06:17.432Z,56.00
2023-03-31T22:11:23.095Z,55.72
2023-03-31T22:16:26.922Z,55.36
2023-03-31T22:21:31.197Z,54.74
2023-03-31T22:26:35.105Z,54.51
2023-03-31T22:31:38.793Z,54.39
2023-03-31T22:36:45.481Z,54.12
2023-03-31T22:41:49.935Z,53.75
2023-03-31T22:46:53.612Z,53.83
2023-03-31T22:52:01.142Z,53.88
2023-03-31T22:57:05.202Z,53.80
2023-03-31T23:02:11.086Z,53.78
2023-03-31T23:07:16.285Z,53.90
2023-03-31T23:12:25.539Z,53.82
2023-03-31T23:17:29.290Z,54.14
2023-03-31T23:22:34.278Z,54.01
2023-03-31T23:27:37.786Z,53.85
2023-03-31T23:32:40.987Z,54.02
2023-03-31T23:37:44.322Z,54.61
2023-03-31T23:42:47.540Z,54.52
2023-03-31T23:47:51.058Z,54.70
2023-03-31T23:52:55.776Z,54.74
2023-03-31T23:57:58.927Z,54.64
